Time;durP1;ratioP1;P1;durP2;ratioP2;P2;SDS_P1;SDS_P2;PMS_P1;PMS_P2;Temp;Humidity;BMP_temperature;BMP_pressure;BME280_temperature;BME280_humidity;BME280_pressure;Samples;Min_cycle;Max_cycle;Signal;HPM_P1;HPM_P2
2023/11/20 00:00:01;;;;;;;6.80;5.70;;;;;;;-2.70;100.00;99942.36;88599;281;24108;-74
2023/11/20 00:02:13;;;;;;;6.60;5.90;;;;;;;-2.72;100.00;99937.48;88633;281;22521;-75
2023/11/20 00:04:15;;;;;;;9.80;7.90;;;;;;;-2.72;100.00;99937.09;88464;282;135961;-75
2023/11/20 00:06:19;;;;;;;7.50;6.80;;;;;;;-2.71;100.00;99934.96;88647;280;22547;-73
2023/11/20 00:08:22;;;;;;;6.00;5.30;;;;;;;-2.70;100.00;99935.25;88488;281;137800;-70
2023/11/20 00:10:24;;;;;;;7.80;5.10;;;;;;;-2.70;100.00;99934.02;88651;273;22530;-72
2023/11/20 00:12:26;;;;;;;10.10;6.40;;;;;;;-2.64;100.00;99932.16;88511;282;136708;-75
2023/11/20 00:14:28;;;;;;;6.10;5.60;;;;;;;-2.54;100.00;99930.91;88403;283;22522;-72
2023/11/20 00:16:30;;;;;;;7.30;4.90;;;;;;;-2.51;100.00;99932.77;88536;281;136489;-74
2023/11/20 00:18:32;;;;;;;6.40;5.80;;;;;;;-2.58;100.00;99930.64;88685;281;22536;-72
2023/11/20 00:20:36;;;;;;;6.20;5.20;;;;;;;-2.66;100.00;99933.36;88468;281;135937;-73
2023/11/20 00:22:39;;;;;;;7.50;6.70;;;;;;;-2.77;100.00;99928.95;88572;274;22540;-73
2023/11/20 00:24:41;;;;;;;7.10;6.40;;;;;;;-2.84;100.00;99928.39;88405;274;136972;-74
2023/11/20 00:26:43;;;;;;;6.40;5.80;;;;;;;-2.84;100.00;99929.30;88641;277;24036;-75
2023/11/20 00:28:46;;;;;;;9.20;5.60;;;;;;;-2.79;100.00;99930.14;88526;278;136681;-73
2023/11/20 00:30:48;;;;;;;7.20;6.10;;;;;;;-2.69;100.00;99930.11;88629;281;24589;-73
2023/11/20 00:32:50;;;;;;;6.30;5.80;;;;;;;-2.63;100.00;99927.93;88336;281;136749;-72
2023/11/20 00:34:52;;;;;;;6.40;5.80;;;;;;;-2.57;100.00;99924.67;88475;277;25144;-69
2023/11/20 00:36:54;;;;;;;7.60;6.50;;;;;;;-2.56;100.00;99921.64;88447;281;136157;-76
2023/11/20 00:38:56;;;;;;;7.60;6.80;;;;;;;-2.57;100.00;99923.65;88562;282;22557;-73
2023/11/20 00:40:58;;;;;;;8.00;6.00;;;;;;;-2.59;100.00;99922.39;88408;277;136474;-73
2023/11/20 00:43:01;;;;;;;8.70;6.40;;;;;;;-2.62;100.00;99918.06;88577;281;22504;-74
2023/11/20 00:45:04;;;;;;;6.70;5.90;;;;;;;-2.64;100.00;99918.77;88452;273;137594;-71
2023/11/20 00:47:06;;;;;;;6.80;5.90;;;;;;;-2.68;100.00;99916.45;88661;273;22713;-75
2023/11/20 00:49:08;;;;;;;7.50;6.70;;;;;;;-2.67;100.00;99916.59;88496;277;136686;-74
2023/11/20 00:51:13;;;;;;;7.70;6.80;;;;;;;-2.64;100.00;99917.91;88595;273;24028;-71
2023/11/20 00:53:16;;;;;;;6.50;5.40;;;;;;;-2.66;100.00;99916.17;88394;281;136448;-75
2023/11/20 00:55:18;;;;;;;6.50;5.70;;;;;;;-2.81;100.00;99906.99;88591;273;23759;-73
2023/11/20 00:57:21;;;;;;;6.50;5.90;;;;;;;-2.86;100.00;99907.17;88532;281;135987;-75
2023/11/20 00:59:23;;;;;;;7.30;5.80;;;;;;;-2.90;100.00;99908.55;88485;279;22529;-74
2023/11/20 01:01:25;;;;;;;6.80;5.60;;;;;;;-2.85;100.00;99909.84;88419;282;136126;-74
2023/11/20 01:03:27;;;;;;;7.90;6.40;;;;;;;-2.76;100.00;99907.16;88528;274;23877;-74
2023/11/20 01:05:29;;;;;;;7.40;6.50;;;;;;;-2.76;100.00;99907.30;88784;274;136309;-77
2023/11/20 01:07:32;;;;;;;7.10;6.30;;;;;;;-2.82;100.00;99906.70;88767;274;22534;-74
2023/11/20 01:09:34;;;;;;;6.50;5.90;;;;;;;-2.88;100.00;99904.69;88554;273;136170;-77
2023/11/20 01:11:36;;;;;;;6.60;6.00;;;;;;;-2.92;100.00;99899.97;88794;274;24045;-71
2023/11/20 01:13:40;;;;;;;7.40;6.70;;;;;;;-2.92;100.00;99897.73;88750;274;136135;-77
2023/11/20 01:15:42;;;;;;;6.90;6.20;;;;;;;-2.88;100.00;99897.59;88624;280;24064;-74
2023/11/20 01:17:46;;;;;;;7.30;5.60;;;;;;;-2.78;100.00;99902.92;88581;279;136746;-73
2023/11/20 01:19:48;;;;;;;6.30;5.30;;;;;;;-2.73;100.00;99903.94;88657;281;22527;-74
2023/11/20 01:21:50;;;;;;;9.10;7.00;;;;;;;-2.80;100.00;99903.08;88378;283;135862;-74
2023/11/20 01:23:51;;;;;;;7.50;6.70;;;;;;;-2.85;100.00;99903.11;88639;282;25306;-74
2023/11/20 01:25:55;;;;;;;9.40;7.70;;;;;;;-2.88;100.00;99903.33;88836;282;135549;-68
2023/11/20 01:28:01;;;;;;;6.90;6.00;;;;;;;-2.91;100.00;99902.33;89050;281;24136;-72
2023/11/20 01:30:04;;;;;;;9.80;7.10;;;;;;;-2.90;100.00;99899.14;88828;281;136644;-74
2023/11/20 01:32:07;;;;;;;6.90;5.90;;;;;;;-2.84;100.00;99902.88;88578;274;137253;-75
2023/11/20 01:34:11;;;;;;;7.80;6.90;;;;;;;-2.79;100.00;99898.52;88725;274;22519;-75
2023/11/20 01:36:17;;;;;;;7.60;6.30;;;;;;;-2.83;100.00;99886.42;89368;282;135786;-76
2023/11/20 01:38:20;;;;;;;6.40;5.60;;;;;;;-2.73;100.00;99897.55;90461;282;22553;-73
2023/11/20 01:40:22;;;;;;;7.90;6.20;;;;;;;-2.73;100.00;99895.12;90900;276;137475;-75
2023/11/20 01:42:24;;;;;;;8.40;5.80;;;;;;;-2.71;100.00;99893.52;90267;281;22562;-73
2023/11/20 01:44:26;;;;;;;7.50;6.60;;;;;;;-2.68;100.00;99891.22;89982;281;137208;-76
2023/11/20 01:46:29;;;;;;;7.60;6.80;;;;;;;-2.68;100.00;99887.21;90398;281;24044;-75
2023/11/20 01:48:32;;;;;;;6.70;6.00;;;;;;;-2.69;100.00;99887.48;88722;282;137591;-74
2023/11/20 01:50:34;;;;;;;7.20;6.50;;;;;;;-2.66;100.00;99887.27;88890;280;24094;-73
2023/11/20 01:52:41;;;;;;;7.20;6.50;;;;;;;-2.61;100.00;99885.12;88833;281;136691;-74
2023/11/20 01:54:44;;;;;;;7.60;6.40;;;;;;;-2.61;100.00;99887.97;88683;281;22548;-77
2023/11/20 01:56:47;;;;;;;7.70;6.90;;;;;;;-2.67;100.00;99890.30;88589;281;135937;-77
2023/11/20 01:58:50;;;;;;;8.00;7.20;;;;;;;-2.73;100.00;99890.77;88484;280;22558;-74
2023/11/20 02:00:52;;;;;;;8.20;7.40;;;;;;;-2.80;100.00;99888.27;88371;282;137378;-76
2023/11/20 02:02:57;;;;;;;8.20;7.20;;;;;;;-2.83;100.00;99884.04;88837;278;22534;-73
2023/11/20 02:04:59;;;;;;;9.90;7.50;;;;;;;-2.84;100.00;99884.23;88643;280;136096;-75
2023/11/20 02:07:02;;;;;;;7.10;6.40;;;;;;;-2.81;100.00;99883.16;88718;282;25202;-74
2023/11/20 02:09:05;;;;;;;7.20;6.20;;;;;;;-2.66;100.00;99886.59;88595;281;136825;-76
2023/11/20 02:11:07;;;;;;;6.90;5.90;;;;;;;-2.52;100.00;99883.42;88625;275;22533;-75
2023/11/20 02:13:09;;;;;;;7.60;6.40;;;;;;;-2.57;100.00;99879.94;88492;281;135906;-74
2023/11/20 02:15:12;;;;;;;6.50;5.60;;;;;;;-2.64;100.00;99887.44;88589;281;25224;-76
2023/11/20 02:17:14;;;;;;;7.60;6.80;;;;;;;-2.71;100.00;99892.33;88518;281;136415;-74
2023/11/20 02:19:18;;;;;;;8.10;7.30;;;;;;;-2.75;100.00;99885.14;88537;273;22737;-75
2023/11/20 02:21:20;;;;;;;8.30;6.70;;;;;;;-2.79;100.00;99884.91;88293;275;137519;-71
2023/11/20 02:23:23;;;;;;;7.50;6.30;;;;;;;-2.80;100.00;99879.06;88588;281;25093;-72
2023/11/20 02:25:25;;;;;;;8.30;6.70;;;;;;;-2.79;100.00;99879.35;88429;282;136427;-74
2023/11/20 02:27:42;;;;;;;8.10;6.50;;;;;;;-2.72;100.00;99882.01;88481;283;23759;-74
2023/11/20 02:29:54;;;;;;;7.50;5.90;;;;;;;-2.68;100.00;99882.04;88434;274;136679;-75
2023/11/20 02:31:59;;;;;;;9.40;7.40;;;;;;;-2.71;100.00;99881.91;88449;278;22544;-73
2023/11/20 02:34:02;;;;;;;8.70;6.60;;;;;;;-2.78;100.00;99876.31;88487;280;136740;-74
2023/11/20 02:36:05;;;;;;;8.70;6.50;;;;;;;-2.80;100.00;99873.70;88421;277;136457;-75
2023/11/20 02:38:07;;;;;;;8.30;6.50;;;;;;;-2.84;100.00;99873.95;88595;279;22545;-73
2023/11/20 02:40:10;;;;;;;8.60;7.80;;;;;;;-2.89;100.00;99871.04;88443;277;136365;-66
2023/11/20 02:42:12;;;;;;;7.70;6.90;;;;;;;-2.91;100.00;99865.67;88630;281;25210;-69
2023/11/20 02:44:15;;;;;;;7.50;6.40;;;;;;;-2.80;100.00;99870.73;88291;283;137081;-77
2023/11/20 02:46:17;;;;;;;7.30;6.00;;;;;;;-2.71;100.00;99863.96;88425;280;22543;-78
2023/11/20 02:48:22;;;;;;;7.20;6.30;;;;;;;-2.74;100.00;99864.92;88401;281;137617;-73
2023/11/20 02:50:24;;;;;;;7.00;6.00;;;;;;;-2.82;100.00;99861.84;88597;281;22542;-73
2023/11/20 02:52:25;;;;;;;8.10;6.90;;;;;;;-2.89;100.00;99858.76;88233;275;136021;-74
2023/11/20 02:54:27;;;;;;;7.60;6.90;;;;;;;-2.92;100.00;99857.70;88388;275;24061;-74
2023/11/20 02:56:29;;;;;;;9.10;6.60;;;;;;;-2.91;100.00;99858.14;88430;281;135980;-73
2023/11/20 02:58:31;;;;;;;8.60;7.00;;;;;;;-2.88;100.00;99856.75;88536;281;24009;-72
2023/11/20 03:00:33;;;;;;;8.70;7.10;;;;;;;-2.84;100.00;99854.52;88283;275;137152;-75
2023/11/20 03:02:36;;;;;;;7.50;6.70;;;;;;;-2.78;100.00;99848.52;88525;277;25048;-74
2023/11/20 03:04:39;;;;;;;8.80;6.70;;;;;;;-2.78;100.00;99845.34;88488;274;136227;-74
2023/11/20 03:06:41;;;;;;;8.00;6.80;;;;;;;-2.82;100.00;99840.62;88709;281;25213;-75
2023/11/20 03:08:45;;;;;;;7.60;6.70;;;;;;;-2.85;100.00;99835.96;88337;279;136772;-77
2023/11/20 03:10:47;;;;;;;7.80;6.70;;;;;;;-2.88;100.00;99833.05;88502;275;24218;-73
2023/11/20 03:12:49;;;;;;;8.50;7.60;;;;;;;-2.86;100.00;99831.88;88523;274;136173;-75
2023/11/20 03:14:53;;;;;;;7.30;6.50;;;;;;;-2.85;100.00;99829.20;88693;276;21544;-75
2023/11/20 03:16:58;;;;;;;8.30;6.20;;;;;;;-2.78;100.00;99828.52;88851;278;136837;-72
2023/11/20 03:19:01;;;;;;;7.10;6.30;;;;;;;-2.73;100.00;99827.05;88895;278;22545;-74
2023/11/20 03:21:04;;;;;;;6.70;6.10;;;;;;;-2.71;100.00;99822.23;88598;283;136764;-71
2023/11/20 03:23:06;;;;;;;8.00;6.80;;;;;;;-2.75;100.00;99817.65;88578;275;24068;-75
2023/11/20 03:25:08;;;;;;;7.60;6.90;;;;;;;-2.80;100.00;99814.06;88295;279;135683;-78
2023/11/20 03:27:11;;;;;;;6.90;5.70;;;;;;;-2.84;100.00;99812.97;88000;274;871887;-78
2023/11/20 03:29:13;;;;;;;10.20;6.70;;;;;;;-2.89;100.00;99809.34;88442;274;136097;-73
2023/11/20 03:31:15;;;;;;;8.80;6.30;;;;;;;-2.88;100.00;99803.33;88472;278;24018;-75
2023/11/20 03:33:17;;;;;;;6.60;5.90;;;;;;;-2.81;100.00;99802.61;88385;281;136794;-73
2023/11/20 03:35:20;;;;;;;6.70;6.00;;;;;;;-2.74;100.00;99804.05;88477;283;23645;-75
2023/11/20 03:37:24;;;;;;;8.70;5.50;;;;;;;-2.74;100.00;99806.25;88471;273;135982;-74
2023/11/20 03:39:27;;;;;;;7.20;6.50;;;;;;;-2.75;100.00;99804.78;88679;277;22597;-74
2023/11/20 03:41:30;;;;;;;8.20;7.40;;;;;;;-2.77;100.00;99803.20;88496;281;136153;-74
2023/11/20 03:43:32;;;;;;;7.50;6.70;;;;;;;-2.82;100.00;99799.77;88547;273;22600;-73
2023/11/20 03:45:35;;;;;;;6.10;5.30;;;;;;;-2.86;100.00;99799.54;88525;280;136303;-72
2023/11/20 03:47:37;;;;;;;7.40;6.30;;;;;;;-2.82;100.00;99798.37;88426;279;22535;-73
2023/11/20 03:49:39;;;;;;;6.50;5.80;;;;;;;-2.78;100.00;99797.18;88448;277;138212;-78
2023/11/20 03:51:41;;;;;;;7.10;6.30;;;;;;;-2.73;100.00;99794.75;88366;282;26186;-79
2023/11/20 03:53:44;;;;;;;8.70;6.70;;;;;;;-2.75;100.00;99797.98;88704;281;136168;-74
2023/11/20 03:55:46;;;;;;;11.00;6.60;;;;;;;-2.80;100.00;99801.16;88680;281;23379;-77
2023/11/20 03:57:48;;;;;;;9.60;7.30;;;;;;;-2.82;100.00;99797.30;88526;274;136214;-74
2023/11/20 03:59:50;;;;;;;7.80;6.10;;;;;;;-2.83;100.00;99796.36;88684;273;22621;-73
2023/11/20 04:01:53;;;;;;;7.80;6.50;;;;;;;-2.88;100.00;99791.90;88510;274;137682;-77
2023/11/20 04:03:56;;;;;;;7.40;6.40;;;;;;;-2.87;100.00;99788.13;88525;273;22530;-73
2023/11/20 04:05:58;;;;;;;7.50;5.90;;;;;;;-2.83;100.00;99787.83;88632;274;136407;-74
2023/11/20 04:08:00;;;;;;;7.90;6.30;;;;;;;-2.82;100.00;99782.23;88537;273;22507;-76
2023/11/20 04:10:04;;;;;;;7.00;6.20;;;;;;;-2.83;100.00;99788.16;88552;277;136485;-76
2023/11/20 04:12:09;;;;;;;6.80;6.10;;;;;;;-2.85;100.00;99785.00;88483;273;136532;-73
2023/11/20 04:14:11;;;;;;;8.00;6.80;;;;;;;-2.87;100.00;99784.67;88536;281;24012;-75
2023/11/20 04:16:14;;;;;;;7.20;6.50;;;;;;;-2.91;100.00;99782.00;88468;275;136405;-76
2023/11/20 04:18:19;;;;;;;10.70;7.90;;;;;;;-2.93;100.00;99781.80;88663;273;22685;-77
2023/11/20 04:20:22;;;;;;;8.30;6.60;;;;;;;-2.90;100.00;99784.02;88509;276;137948;-74
2023/11/20 04:22:24;;;;;;;7.10;5.50;;;;;;;-2.84;100.00;99783.54;88563;282;22527;-76
2023/11/20 04:24:29;;;;;;;7.90;7.10;;;;;;;-2.81;100.00;99788.89;88407;282;136686;-76
2023/11/20 04:26:31;;;;;;;6.90;6.20;;;;;;;-2.84;100.00;99789.13;88626;278;22534;-77
2023/11/20 04:28:35;;;;;;;7.30;6.50;;;;;;;-2.87;100.00;99787.32;88373;274;136182;-75
2023/11/20 04:30:37;;;;;;;8.40;6.40;;;;;;;-2.87;100.00;99791.26;88654;274;22540;-76
2023/11/20 04:32:39;;;;;;;11.10;6.80;;;;;;;-2.88;100.00;99787.91;88559;273;136149;-78
2023/11/20 04:34:41;;;;;;;7.00;6.00;;;;;;;-2.89;100.00;99789.85;88478;275;23807;-75
2023/11/20 04:36:45;;;;;;;8.10;6.40;;;;;;;-2.83;100.00;99790.82;88478;281;136925;-77
2023/11/20 04:38:46;;;;;;;8.90;5.90;;;;;;;-2.78;100.00;99792.52;88612;281;24013;-76
2023/11/20 04:40:48;;;;;;;6.80;5.90;;;;;;;-2.76;100.00;99789.55;88535;273;136512;-76
2023/11/20 04:42:50;;;;;;;9.10;6.80;;;;;;;-2.80;100.00;99787.81;88527;277;24049;-75
2023/11/20 04:44:52;;;;;;;7.80;5.90;;;;;;;-2.85;100.00;99788.15;88447;280;137538;-76
2023/11/20 04:46:54;;;;;;;7.60;6.40;;;;;;;-2.91;100.00;99783.42;88471;283;22942;-74
2023/11/20 04:48:57;;;;;;;7.30;6.40;;;;;;;-2.94;100.00;99782.71;88449;281;137476;-74
2023/11/20 04:50:58;;;;;;;7.70;6.80;;;;;;;-2.85;100.00;99784.20;88514;274;25332;-74
2023/11/20 04:53:00;;;;;;;8.10;7.30;;;;;;;-2.79;100.00;99780.72;88425;281;136633;-75
2023/11/20 04:55:04;;;;;;;9.30;8.30;;;;;;;-2.73;100.00;99781.54;88418;278;23478;-74
2023/11/20 04:57:09;;;;;;;9.60;6.60;;;;;;;-2.76;100.00;99781.39;88490;273;136273;-75
2023/11/20 04:59:11;;;;;;;9.00;6.90;;;;;;;-2.78;100.00;99780.52;88547;273;22534;-73
2023/11/20 05:01:13;;;;;;;7.50;6.80;;;;;;;-2.80;100.00;99781.36;88299;273;136048;-70
2023/11/20 05:03:16;;;;;;;8.70;7.30;;;;;;;-2.81;100.00;99776.42;88277;272;22534;-73
2023/11/20 05:05:18;;;;;;;8.90;7.50;;;;;;;-2.83;100.00;99776.55;88398;280;136310;-75
2023/11/20 05:07:21;;;;;;;7.50;6.40;;;;;;;-2.83;100.00;99769.23;88336;277;24235;-75
2023/11/20 05:09:23;;;;;;;7.40;6.30;;;;;;;-2.73;100.00;99768.80;88456;281;136768;-74
2023/11/20 05:11:25;;;;;;;7.80;5.70;;;;;;;-2.65;100.00;99770.99;88478;274;22530;-73
2023/11/20 05:13:27;;;;;;;8.10;7.20;;;;;;;-2.61;100.00;99766.85;88401;280;138684;-74
2023/11/20 05:15:30;;;;;;;7.10;6.40;;;;;;;-2.63;100.00;99769.45;88422;273;25652;-68
2023/11/20 05:17:31;;;;;;;9.60;7.60;;;;;;;-2.69;100.00;99776.34;88417;273;136020;-71
2023/11/20 05:19:34;;;;;;;6.30;5.60;;;;;;;-2.76;100.00;99772.67;88366;281;22562;-72
2023/11/20 05:21:35;;;;;;;9.30;7.20;;;;;;;-2.79;100.00;99774.52;88321;273;136280;-70
2023/11/20 05:23:38;;;;;;;8.50;7.20;;;;;;;-2.81;100.00;99773.41;88420;273;25168;-72
2023/11/20 05:25:40;;;;;;;6.80;6.00;;;;;;;-2.80;100.00;99775.60;88379;273;136476;-71
2023/11/20 05:27:42;;;;;;;8.60;6.50;;;;;;;-2.70;100.00;99778.70;88451;273;22539;-70
2023/11/20 05:29:47;;;;;;;10.50;6.40;;;;;;;-2.65;100.00;99777.92;88297;278;138356;-70
2023/11/20 05:31:48;;;;;;;7.40;6.30;;;;;;;-2.60;100.00;99784.02;88414;273;26169;-73
2023/11/20 05:33:50;;;;;;;7.90;6.70;;;;;;;-2.63;100.00;99783.02;88331;273;136290;-77
2023/11/20 05:35:52;;;;;;;6.90;5.90;;;;;;;-2.67;100.00;99785.55;88385;273;22562;-77
2023/11/20 05:37:54;;;;;;;7.10;6.20;;;;;;;-2.73;100.00;99783.55;88224;283;135564;-75
2023/11/20 05:39:56;;;;;;;7.40;6.10;;;;;;;-2.77;100.00;99782.84;88472;273;22553;-76
2023/11/20 05:41:59;;;;;;;8.50;6.10;;;;;;;-2.79;100.00;99773.65;88720;273;138317;-72
2023/11/20 05:44:01;;;;;;;6.80;5.90;;;;;;;-2.67;100.00;99785.42;88511;273;22530;-72
2023/11/20 05:46:04;;;;;;;6.20;5.30;;;;;;;-2.65;100.00;99778.45;88522;273;137229;-71
2023/11/20 05:48:06;;;;;;;7.10;6.40;;;;;;;-2.64;100.00;99786.39;88196;275;136099;-73
2023/11/20 05:50:09;;;;;;;8.50;7.10;;;;;;;-2.67;100.00;99786.28;88460;273;24014;-71
2023/11/20 05:52:12;;;;;;;7.20;6.50;;;;;;;-2.71;100.00;99783.80;88364;273;138231;-72
2023/11/20 05:54:14;;;;;;;7.40;6.20;;;;;;;-2.74;100.00;99782.58;88449;274;22539;-71
2023/11/20 05:56:16;;;;;;;9.40;6.50;;;;;;;-2.76;100.00;99782.96;88378;272;136174;-74
2023/11/20 05:58:18;;;;;;;6.80;6.00;;;;;;;-2.79;100.00;99784.02;88505;277;24607;-71
2023/11/20 06:00:20;;;;;;;7.60;6.40;;;;;;;-2.75;100.00;99785.69;88398;273;137934;-69
2023/11/20 06:02:22;;;;;;;7.20;5.80;;;;;;;-2.68;100.00;99790.70;88433;273;22534;-69
2023/11/20 06:04:24;;;;;;;7.10;6.40;;;;;;;-2.63;100.00;99796.42;88365;276;136895;-74
2023/11/20 06:06:26;;;;;;;7.00;6.30;;;;;;;-2.58;100.00;99804.33;88688;273;25419;-73
2023/11/20 06:08:29;;;;;;;6.70;6.00;;;;;;;-2.58;100.00;99810.27;88262;275;135596;-72
2023/11/20 06:10:31;;;;;;;11.90;7.00;;;;;;;-2.62;100.00;99810.40;88475;273;22546;-72
2023/11/20 06:12:33;;;;;;;7.80;6.50;;;;;;;-2.69;100.00;99810.27;88363;273;137014;-69
2023/11/20 06:14:35;;;;;;;6.50;5.80;;;;;;;-2.74;100.00;99813.03;88414;273;22546;-70
2023/11/20 06:16:38;;;;;;;7.00;6.40;;;;;;;-2.79;100.00;99809.59;88232;275;136176;-66
2023/11/20 06:18:40;;;;;;;7.60;6.80;;;;;;;-2.80;100.00;99807.59;88528;273;24054;-71
2023/11/20 06:20:43;;;;;;;9.50;7.00;;;;;;;-2.78;100.00;99811.43;88294;275;136329;-68
2023/11/20 06:22:46;;;;;;;8.00;5.90;;;;;;;-2.74;100.00;99810.41;88472;274;24471;-72
2023/11/20 06:24:48;;;;;;;10.80;7.60;;;;;;;-2.70;100.00;99810.02;88467;273;136658;-68
2023/11/20 06:26:50;;;;;;;8.40;7.10;;;;;;;-2.68;100.00;99807.95;88420;273;24049;-71
2023/11/20 06:28:52;;;;;;;7.90;6.20;;;;;;;-2.72;100.00;99803.31;88428;273;135933;-70
2023/11/20 06:30:54;;;;;;;6.60;5.90;;;;;;;-2.77;100.00;99796.95;88500;273;22537;-67
2023/11/20 06:32:56;;;;;;;11.10;8.20;;;;;;;-2.81;100.00;99798.81;88601;273;136053;-68
2023/11/20 06:34:58;;;;;;;9.30;8.10;;;;;;;-2.84;100.00;99801.98;88438;273;25093;-67
2023/11/20 06:37:01;;;;;;;9.30;7.30;;;;;;;-2.86;100.00;99803.48;88246;278;136495;-69
2023/11/20 06:39:05;;;;;;;10.80;6.90;;;;;;;-2.83;100.00;99806.80;88576;273;25084;-71
2023/11/20 06:41:08;;;;;;;7.70;6.30;;;;;;;-2.79;100.00;99804.91;88307;275;138417;-69
2023/11/20 06:43:10;;;;;;;8.30;6.80;;;;;;;-2.75;100.00;99801.13;88291;275;22532;-70
2023/11/20 06:45:12;;;;;;;8.40;6.90;;;;;;;-2.75;100.00;99799.58;88424;273;138568;-70
2023/11/20 06:47:14;;;;;;;8.40;7.10;;;;;;;-2.77;100.00;99796.98;88482;273;22536;-69
2023/11/20 06:49:16;;;;;;;10.10;7.60;;;;;;;-2.77;100.00;99798.70;88329;273;136095;-67
2023/11/20 06:51:19;;;;;;;11.30;8.70;;;;;;;-2.78;100.00;99797.21;88354;278;22584;-71
2023/11/20 06:53:21;;;;;;;10.80;6.80;;;;;;;-2.75;100.00;99798.52;88348;274;136715;-71
2023/11/20 06:55:24;;;;;;;11.90;7.00;;;;;;;-2.63;100.00;99800.56;88630;273;22615;-68
2023/11/20 06:57:26;;;;;;;9.80;7.40;;;;;;;-2.53;100.00;99802.58;88307;273;137165;-68
2023/11/20 06:59:29;;;;;;;9.80;7.30;;;;;;;-2.41;100.00;99803.44;88501;272;25268;-72
2023/11/20 07:01:31;;;;;;;7.20;6.50;;;;;;;-2.36;100.00;99806.86;88216;275;137464;-70
2023/11/20 07:03:33;;;;;;;11.90;8.00;;;;;;;-2.37;100.00;99809.35;88441;279;22529;-69
2023/11/20 07:05:35;;;;;;;8.40;7.00;;;;;;;-2.40;100.00;99809.58;88415;273;136410;-67
2023/11/20 07:07:50;;;;;;;9.20;7.50;;;;;;;-2.43;100.00;99811.05;88394;274;22596;-68
2023/11/20 07:09:52;;;;;;;8.50;6.70;;;;;;;-2.48;100.00;99814.45;88366;272;135850;-67
2023/11/20 07:11:54;;;;;;;7.70;6.60;;;;;;;-2.51;100.00;99808.54;88426;272;22537;-68
2023/11/20 07:13:56;;;;;;;8.30;6.20;;;;;;;-2.45;100.00;99808.30;88371;277;137075;-67
2023/11/20 07:15:58;;;;;;;10.20;7.70;;;;;;;-2.34;100.00;99807.10;88445;273;25254;-71
2023/11/20 07:18:02;;;;;;;6.80;6.00;;;;;;;-2.23;100.00;99809.20;88473;272;136567;-67
2023/11/20 07:20:06;;;;;;;9.30;7.00;;;;;;;-2.20;100.00;99806.16;88567;280;136395;-66
2023/11/20 07:22:10;;;;;;;12.10;6.80;;;;;;;-2.25;100.00;99804.27;88596;273;22558;-72
2023/11/20 07:24:14;;;;;;;9.30;6.50;;;;;;;-2.40;100.00;99781.09;88321;273;136478;-70
2023/11/20 07:26:17;;;;;;;12.10;8.30;;;;;;;-2.27;100.00;99799.71;88475;273;22603;-68
2023/11/20 07:29:37;;;;;;;10.10;7.00;;;;;;;-2.21;100.00;99795.80;86727;307;602023;-69
2023/11/20 07:31:40;;;;;;;8.90;7.20;;;;;;;-2.08;100.00;99788.20;87883;293;22540;-76
2023/11/20 07:33:42;;;;;;;7.00;5.70;;;;;;;-1.95;100.00;99782.80;88149;283;136773;-73
2023/11/20 07:35:44;;;;;;;8.10;7.30;;;;;;;-1.86;100.00;99777.70;88267;287;22673;-72
2023/11/20 07:37:46;;;;;;;7.80;7.10;;;;;;;-1.83;100.00;99780.81;88024;283;135309;-79
2023/11/20 07:39:48;;;;;;;8.40;7.50;;;;;;;-1.83;100.00;99774.16;88490;279;25244;-79
2023/11/20 07:41:51;;;;;;;9.30;7.50;;;;;;;-1.84;100.00;99769.92;88093;277;136582;-72
2023/11/20 07:43:54;;;;;;;8.40;6.80;;;;;;;-1.84;100.00;99769.70;90653;284;597451;-77
2023/11/20 07:45:55;;;;;;;8.60;6.70;;;;;;;-1.82;100.00;99768.88;88677;277;135260;-77
2023/11/20 07:47:58;;;;;;;11.50;6.90;;;;;;;-1.79;100.00;99772.43;88301;276;22941;-76
2023/11/20 07:50:00;;;;;;;9.50;7.40;;;;;;;-1.71;100.00;99772.67;88224;276;136213;-77
2023/11/20 07:52:02;;;;;;;8.20;6.50;;;;;;;-1.64;100.00;99772.46;88304;281;22632;-78
2023/11/20 07:54:07;;;;;;;8.20;7.10;;;;;;;-1.68;100.00;99771.27;88399;283;25150;-74
2023/11/20 07:56:12;;;;;;;8.10;7.20;;;;;;;-1.70;100.00;99773.17;90939;284;136357;-81
2023/11/20 07:58:14;;;;;;;8.30;7.10;;;;;;;-1.68;100.00;99778.23;88727;284;23710;-76
2023/11/20 08:00:17;;;;;;;11.40;9.40;;;;;;;-1.64;100.00;99779.44;89030;282;137181;-74
2023/11/20 08:02:19;;;;;;;10.10;9.00;;;;;;;-1.63;100.00;99773.75;88922;284;22596;-77
2023/11/20 08:04:22;;;;;;;9.20;7.60;;;;;;;-1.60;100.00;99773.40;88519;281;136152;-79
2023/11/20 08:06:24;;;;;;;8.50;7.00;;;;;;;-1.48;100.00;99770.48;88571;283;23920;-81
2023/11/20 08:08:27;;;;;;;8.50;6.90;;;;;;;-1.34;100.00;99774.73;89093;277;136551;-77
2023/11/20 08:10:29;;;;;;;8.30;7.40;;;;;;;-1.21;100.00;99771.23;89003;285;22555;-80
2023/11/20 08:12:30;;;;;;;9.40;7.00;;;;;;;-1.20;100.00;99766.13;88153;279;135711;-70
2023/11/20 08:14:33;;;;;;;8.90;7.40;;;;;;;-1.21;100.00;99767.22;88419;285;22533;-79
2023/11/20 08:16:35;;;;;;;10.10;8.60;;;;;;;-1.18;100.00;99762.84;89431;277;135919;-80
2023/11/20 08:18:38;;;;;;;11.00;7.60;;;;;;;-1.14;100.00;99761.63;91148;284;22993;-80
2023/11/20 08:20:39;;;;;;;10.90;7.10;;;;;;;-1.10;100.00;99763.02;91022;284;137292;-79
2023/11/20 08:22:41;;;;;;;8.50;7.00;;;;;;;-1.06;100.00;99760.61;89893;284;22549;-78
2023/11/20 08:24:43;;;;;;;6.10;5.50;;;;;;;-1.03;100.00;99761.04;88296;284;136626;-81
2023/11/20 08:26:49;;;;;;;12.00;5.60;;;;;;;-0.98;100.00;99760.83;88358;281;22628;-79
2023/11/20 08:28:51;;;;;;;8.10;7.00;;;;;;;-0.92;100.00;99760.34;91017;284;139140;-77
2023/11/20 08:30:53;;;;;;;7.90;7.10;;;;;;;-0.88;100.00;99755.27;89795;280;22536;-75
2023/11/20 08:32:56;;;;;;;10.60;7.30;;;;;;;-0.90;100.00;99752.98;88771;276;135910;-77
2023/11/20 08:34:58;;;;;;;8.70;7.80;;;;;;;-0.90;100.00;99750.92;88349;279;25102;-75
2023/11/20 08:37:00;;;;;;;9.60;7.50;;;;;;;-0.98;100.00;99735.55;88767;284;135778;-79
2023/11/20 08:39:05;;;;;;;9.60;7.90;;;;;;;-0.88;100.00;99745.32;91184;281;22340;-74
2023/11/20 08:41:08;;;;;;;10.60;6.90;;;;;;;-0.84;100.00;99742.34;90583;282;135590;-78
2023/11/20 08:43:11;;;;;;;9.90;6.50;;;;;;;-0.77;100.00;99745.14;89333;284;22536;-71
2023/11/20 08:45:13;;;;;;;8.50;7.40;;;;;;;-0.70;100.00;99745.54;91221;278;135640;-77
2023/11/20 08:47:15;;;;;;;8.90;7.00;;;;;;;-0.59;100.00;99741.15;90808;277;23537;-70
2023/11/20 08:49:17;;;;;;;7.90;6.20;;;;;;;-0.49;100.00;99742.70;90497;284;136798;-76
2023/11/20 08:51:20;;;;;;;8.90;7.90;;;;;;;-0.52;100.00;99729.58;90730;284;23961;-75
2023/11/20 08:53:22;;;;;;;7.40;6.60;;;;;;;-0.48;100.00;99737.42;90413;284;135992;-78
2023/11/20 08:55:24;;;;;;;8.40;7.40;;;;;;;-0.57;100.00;99727.55;90001;278;25566;-75
2023/11/20 08:57:27;;;;;;;8.00;6.40;;;;;;;-0.51;100.00;99742.08;89434;276;135365;-79
2023/11/20 08:59:29;;;;;;;13.70;10.40;;;;;;;-0.51;100.00;99738.48;89431;284;22477;-75
2023/11/20 09:01:34;;;;;;;13.20;8.60;;;;;;;-0.50;100.00;99735.49;89361;285;136936;-80
2023/11/20 09:03:36;;;;;;;8.70;7.10;;;;;;;-0.43;100.00;99736.60;89158;277;22478;-80
2023/11/20 09:05:38;;;;;;;9.20;7.10;;;;;;;-0.33;100.00;99734.02;88445;281;136962;-78
2023/11/20 09:07:44;;;;;;;8.30;7.00;;;;;;;-0.19;100.00;99733.89;88496;278;22512;-81
2023/11/20 09:09:47;;;;;;;7.40;6.70;;;;;;;-0.06;100.00;99731.13;88187;284;136147;-76
2023/11/20 09:11:50;;;;;;;6.70;6.10;;;;;;;-0.02;100.00;99728.52;88372;284;22541;-71
2023/11/20 09:13:52;;;;;;;8.50;7.30;;;;;;;-0.03;100.00;99722.35;88107;277;135935;-77
2023/11/20 09:15:54;;;;;;;9.50;7.80;;;;;;;-0.01;100.00;99722.83;88334;278;22556;-69
2023/11/20 09:17:56;;;;;;;10.60;7.80;;;;;;;0.04;100.00;99721.87;88301;276;136903;-74
2023/11/20 09:19:59;;;;;;;9.00;7.00;;;;;;;0.05;100.00;99717.76;88747;284;24023;-73
2023/11/20 09:22:01;;;;;;;8.10;6.70;;;;;;;0.03;100.00;99714.66;88114;284;138127;-74
2023/11/20 09:24:04;;;;;;;8.30;7.40;;;;;;;-0.06;100.00;99704.75;88150;285;135435;-71
2023/11/20 09:26:11;;;;;;;8.60;6.40;;;;;;;0.05;100.00;99706.77;90040;277;24309;-74
2023/11/20 09:28:15;;;;;;;8.20;6.90;;;;;;;0.20;100.00;99709.95;88323;276;136386;-74
2023/11/20 09:30:18;;;;;;;6.70;6.10;;;;;;;0.34;100.00;99707.90;88350;276;22537;-71
2023/11/20 09:32:20;;;;;;;9.10;7.10;;;;;;;0.38;100.00;99702.91;88103;281;135924;-72
2023/11/20 09:34:23;;;;;;;8.00;7.20;;;;;;;0.36;100.00;99703.63;88245;277;25113;-71